Weather at Babb Airport

Public forecast

Using degrees Fahrenheit for public forecast. Weather courtesy of forecast.io.

Closest aviation weather report (METAR) to Babb Airport

Closest report is Cut Bank International Airport, 43.9 nm (81.3 km) ESE.

2024/07/13 16:56 (retrieved 18 minutes ago)

KCTB 131656Z AUTO 21006KT 10SM CLR 25/11 A3007 RMK AO2 SLP148 T02500111

Closest aviation forecast (TAF) to Babb Airport

Closest forecast is Cut Bank International Airport, 43.9 nm (81.3 km) ESE.

2024/07/13 12:42 (retrieved 5 hours ago)

TAF KCTB 131138Z 1312/1412 VRB06KT P6SM FEW110 FM131900 28011G20KT P6SM SCT090 FM140200 27010KT P6SM SKC